Time;durP1;ratioP1;P1;durP2;ratioP2;P2;SDS_P1;SDS_P2;PMS_P1;PMS_P2;Temp;Humidity;BMP_temperature;BMP_pressure;BME280_temperature;BME280_humidity;BME280_pressure;Samples;Min_cycle;Max_cycle;Signal;HPM_P1;HPM_P2
2021/09/07 00:01:55;;;;;;;18.57;10.50;;;12.30;99.90;;;;;;4982095;28;20639;-81
2021/09/07 00:04:28;;;;;;;13.77;10.40;;;12.20;99.90;;;;;;4982295;28;20260;-81
2021/09/07 00:06:54;;;;;;;14.37;10.60;;;12.00;99.90;;;;;;4980799;28;20183;-82
2021/09/07 00:09:20;;;;;;;14.27;10.90;;;12.00;99.90;;;;;;4981631;28;20323;-81
2021/09/07 00:11:46;;;;;;;13.67;11.03;;;12.00;99.90;;;;;;4980918;28;20239;-81
2021/09/07 00:14:11;;;;;;;13.17;9.93;;;12.00;99.90;;;;;;4981364;28;20735;-81
2021/09/07 00:16:37;;;;;;;12.73;10.00;;;12.00;99.90;;;;;;4984359;28;20626;-82
2021/09/07 00:19:03;;;;;;;12.47;9.80;;;12.00;99.90;;;;;;4984623;28;20168;-82
2021/09/07 00:21:28;;;;;;;14.03;10.13;;;12.00;99.90;;;;;;4983225;28;20177;-82
2021/09/07 00:23:54;;;;;;;12.20;9.27;;;12.00;99.90;;;;;;4986508;28;20182;-82
2021/09/07 00:26:20;;;;;;;13.57;10.33;;;11.90;99.90;;;;;;4982796;28;20184;-81
2021/09/07 00:28:45;;;;;;;13.90;10.97;;;11.90;99.90;;;;;;4981301;28;20280;-81
2021/09/07 00:31:11;;;;;;;12.70;10.23;;;11.90;99.90;;;;;;4982837;28;20568;-82
2021/09/07 00:33:37;;;;;;;13.03;10.07;;;11.80;99.90;;;;;;4983694;28;20646;-82
2021/09/07 00:36:02;;;;;;;13.40;11.03;;;11.80;99.90;;;;;;4981902;28;20188;-82
2021/09/07 00:38:28;;;;;;;12.70;10.10;;;11.80;99.90;;;;;;4982357;28;20209;-82
2021/09/07 00:40:54;;;;;;;13.30;10.40;;;11.80;99.90;;;;;;4981859;28;20196;-82
2021/09/07 00:43:19;;;;;;;14.97;10.20;;;11.80;99.90;;;;;;4983222;28;20170;-82
2021/09/07 00:45:46;;;;;;;13.80;10.93;;;11.70;99.90;;;;;;4983015;28;20249;-82
2021/09/07 00:48:11;;;;;;;13.90;10.20;;;11.70;99.90;;;;;;4981954;28;20191;-82
2021/09/07 00:50:37;;;;;;;14.77;10.33;;;11.80;99.90;;;;;;4983085;28;20212;-82
2021/09/07 00:53:04;;;;;;;12.50;10.23;;;11.80;99.90;;;;;;4981336;28;20200;-82
2021/09/07 00:55:30;;;;;;;16.03;10.97;;;11.80;99.90;;;;;;4981200;28;20248;-82
2021/09/07 00:57:57;;;;;;;12.87;10.17;;;11.70;99.90;;;;;;4983408;28;20172;-82
2021/09/07 01:00:23;;;;;;;12.77;10.57;;;11.60;99.90;;;;;;4982814;28;20660;-82
2021/09/07 01:02:52;;;;;;;16.10;11.17;;;11.60;99.90;;;;;;4981363;28;20207;-82
2021/09/07 01:05:19;;;;;;;15.93;10.60;;;11.60;99.90;;;;;;4981514;28;20210;-82
2021/09/07 01:07:45;;;;;;;14.33;10.80;;;11.50;99.90;;;;;;4981331;28;20191;-82
2021/09/07 01:10:11;;;;;;;14.63;11.33;;;11.60;99.90;;;;;;4981256;28;20204;-82
2021/09/07 01:12:37;;;;;;;13.77;10.90;;;11.60;99.90;;;;;;4982037;28;20658;-83
2021/09/07 01:15:04;;;;;;;13.13;10.23;;;11.60;99.90;;;;;;4981578;28;20172;-82
2021/09/07 01:17:30;;;;;;;15.37;11.47;;;11.60;99.90;;;;;;4991264;28;20202;-81
2021/09/07 01:19:56;;;;;;;17.70;10.80;;;11.60;99.90;;;;;;4993624;28;20196;-81
2021/09/07 01:22:23;;;;;;;15.97;11.10;;;11.50;99.90;;;;;;4988356;28;20184;-81
2021/09/07 01:24:50;;;;;;;15.03;10.93;;;11.60;99.90;;;;;;4981169;28;20510;-82
2021/09/07 01:27:19;;;;;;;16.77;9.80;;;11.50;99.90;;;;;;4982742;28;20540;-82
2021/09/07 01:29:46;;;;;;;13.03;9.90;;;11.50;99.90;;;;;;4981363;28;20212;-82
2021/09/07 01:32:13;;;;;;;12.43;10.10;;;11.50;99.90;;;;;;4981340;28;20669;-82
2021/09/07 01:34:40;;;;;;;12.67;9.60;;;11.40;99.90;;;;;;4979210;28;20202;-81
2021/09/07 01:37:06;;;;;;;13.47;9.73;;;11.40;99.90;;;;;;4980254;28;20183;-81
2021/09/07 01:39:32;;;;;;;12.93;9.67;;;11.30;99.90;;;;;;4982840;28;20572;-82
2021/09/07 01:41:58;;;;;;;12.63;9.77;;;11.30;99.90;;;;;;4980816;28;20662;-82
2021/09/07 01:44:24;;;;;;;12.83;8.83;;;11.30;99.90;;;;;;4981013;28;20191;-82
2021/09/07 01:46:50;;;;;;;14.60;11.03;;;11.30;99.90;;;;;;4981118;28;20180;-81
2021/09/07 01:49:16;;;;;;;13.23;10.13;;;11.30;99.90;;;;;;4981139;28;20200;-82
2021/09/07 01:51:44;;;;;;;14.33;11.07;;;11.20;99.90;;;;;;4981729;28;20183;-82
2021/09/07 01:54:10;;;;;;;14.00;9.73;;;11.20;99.90;;;;;;4981187;28;20180;-82
2021/09/07 01:56:37;;;;;;;14.97;9.23;;;11.20;99.90;;;;;;4985850;28;20161;-81
2021/09/07 01:59:04;;;;;;;13.20;9.67;;;11.20;99.90;;;;;;4979989;28;20179;-82
2021/09/07 02:01:30;;;;;;;13.97;9.93;;;11.20;99.90;;;;;;4981978;28;20172;-82
2021/09/07 02:03:56;;;;;;;12.33;9.83;;;11.20;99.90;;;;;;4982347;28;20176;-82
2021/09/07 02:06:21;;;;;;;12.53;10.13;;;11.30;99.90;;;;;;4980113;28;20180;-82
2021/09/07 02:08:47;;;;;;;14.03;10.10;;;11.30;99.90;;;;;;4979141;28;20184;-82
2021/09/07 02:11:13;;;;;;;12.37;10.00;;;11.30;99.90;;;;;;4979115;28;20204;-82
2021/09/07 02:13:38;;;;;;;15.13;10.80;;;11.30;99.90;;;;;;4979356;28;20181;-82
2021/09/07 02:16:06;;;;;;;18.50;10.27;;;11.20;99.90;;;;;;4980691;28;20196;-82
2021/09/07 02:18:32;;;;;;;13.00;9.73;;;11.20;99.90;;;;;;4980180;28;20175;-83
2021/09/07 02:20:58;;;;;;;13.07;10.03;;;11.20;99.90;;;;;;4980496;28;20200;-82
2021/09/07 02:23:23;;;;;;;11.70;9.33;;;11.20;99.90;;;;;;4980838;28;20580;-82
2021/09/07 02:25:49;;;;;;;13.27;9.17;;;11.20;99.90;;;;;;4980646;28;20172;-82
2021/09/07 02:28:15;;;;;;;11.97;9.27;;;11.20;99.90;;;;;;4980070;28;20636;-82
2021/09/07 02:30:41;;;;;;;11.87;9.03;;;11.20;99.90;;;;;;4979343;28;20214;-82
2021/09/07 02:33:08;;;;;;;13.23;9.17;;;11.10;99.90;;;;;;4977712;28;20184;-81
2021/09/07 02:35:34;;;;;;;12.63;9.30;;;11.10;99.90;;;;;;4977542;28;20532;-81
2021/09/07 02:38:01;;;;;;;14.33;9.37;;;11.10;99.90;;;;;;4978269;28;20223;-81
2021/09/07 02:40:34;;;;;;;12.73;9.57;;;11.10;99.90;;;;;;4977943;28;20207;-81
2021/09/07 02:43:00;;;;;;;16.00;10.33;;;11.20;99.90;;;;;;4976475;28;20238;-81
2021/09/07 02:45:25;;;;;;;13.70;9.83;;;11.20;99.90;;;;;;4978612;28;20559;-81
2021/09/07 02:47:51;;;;;;;11.70;9.17;;;11.20;99.90;;;;;;4978054;28;20187;-82
2021/09/07 02:50:17;;;;;;;11.87;9.57;;;11.20;99.90;;;;;;4979231;28;20227;-82
2021/09/07 02:52:43;;;;;;;13.60;9.90;;;11.10;99.90;;;;;;4980629;28;20176;-81
2021/09/07 02:55:10;;;;;;;14.70;9.17;;;11.10;99.90;;;;;;4984104;28;20271;-82
2021/09/07 02:57:35;;;;;;;14.57;10.50;;;11.10;99.90;;;;;;4980362;28;20168;-82
2021/09/07 03:00:02;;;;;;;11.33;9.37;;;11.10;99.90;;;;;;4979516;28;20287;-82
2021/09/07 03:02:28;;;;;;;12.23;9.07;;;11.10;99.90;;;;;;4979559;28;20175;-82
2021/09/07 03:04:54;;;;;;;10.93;8.77;;;11.10;99.90;;;;;;4979931;28;20235;-82
2021/09/07 03:07:20;;;;;;;11.73;8.97;;;11.00;99.90;;;;;;4979625;28;20172;-83
2021/09/07 03:09:45;;;;;;;11.27;8.73;;;11.00;99.90;;;;;;4978803;28;20211;-82
2021/09/07 03:12:11;;;;;;;12.73;9.20;;;10.90;99.90;;;;;;4980281;28;20578;-82
2021/09/07 03:14:37;;;;;;;11.63;9.10;;;10.90;99.90;;;;;;4979706;28;20219;-82
2021/09/07 03:17:03;;;;;;;12.10;9.03;;;10.90;99.90;;;;;;4977969;28;20187;-82
2021/09/07 03:19:29;;;;;;;11.57;8.70;;;10.80;99.90;;;;;;4978004;28;20207;-82
2021/09/07 03:21:55;;;;;;;13.47;9.70;;;10.80;99.90;;;;;;4980018;28;20184;-82
2021/09/07 03:24:21;;;;;;;10.97;9.03;;;10.80;99.90;;;;;;4977846;28;20184;-82
2021/09/07 03:26:46;;;;;;;12.40;9.50;;;10.70;99.90;;;;;;4979331;28;20212;-82
2021/09/07 03:29:12;;;;;;;13.57;9.07;;;10.70;99.90;;;;;;4978041;28;20208;-82
2021/09/07 03:31:38;;;;;;;10.33;8.73;;;10.70;99.90;;;;;;4978356;28;20529;-82
2021/09/07 03:34:04;;;;;;;13.90;9.40;;;10.70;99.90;;;;;;4979211;28;20222;-82
2021/09/07 03:36:30;;;;;;;11.83;9.37;;;10.70;99.90;;;;;;4978039;28;20176;-82
2021/09/07 03:38:55;;;;;;;12.00;7.97;;;10.60;99.90;;;;;;4979119;28;20194;-82
2021/09/07 03:41:21;;;;;;;12.90;8.73;;;10.60;99.90;;;;;;4978321;28;20282;-82
2021/09/07 03:43:47;;;;;;;12.87;8.70;;;10.60;99.90;;;;;;4978790;28;20195;-83
2021/09/07 03:46:12;;;;;;;11.70;8.80;;;10.60;99.90;;;;;;4979200;28;20310;-82
2021/09/07 03:48:39;;;;;;;14.30;8.90;;;10.60;99.90;;;;;;4980192;28;20199;-83
2021/09/07 03:51:05;;;;;;;10.33;8.33;;;10.50;99.90;;;;;;4978970;28;20215;-84
2021/09/07 03:53:31;;;;;;;11.23;9.20;;;10.50;99.90;;;;;;4981822;28;20179;-82
2021/09/07 03:55:57;;;;;;;12.33;8.30;;;10.50;99.90;;;;;;4982004;28;20173;-82
2021/09/07 03:58:26;;;;;;;11.97;8.53;;;10.50;99.90;;;;;;4982872;28;20176;-82
2021/09/07 04:00:53;;;;;;;11.87;8.93;;;10.50;99.90;;;;;;4979770;28;20227;-83
2021/09/07 04:03:20;;;;;;;11.97;9.60;;;10.50;99.90;;;;;;4980133;28;20184;-83
2021/09/07 04:05:46;;;;;;;11.80;9.57;;;10.50;99.90;;;;;;4978922;28;20191;-83
2021/09/07 04:08:12;;;;;;;12.20;9.00;;;10.50;99.90;;;;;;4980335;28;20176;-82
2021/09/07 04:10:38;;;;;;;11.80;8.57;;;;;;;;;;4980271;28;20303;-83
2021/09/07 04:13:05;;;;;;;12.93;8.87;;;10.50;99.90;;;;;;4979884;28;20196;-83
2021/09/07 04:15:30;;;;;;;11.37;8.67;;;10.50;99.90;;;;;;4978737;28;20643;-83
2021/09/07 04:17:56;;;;;;;13.00;8.50;;;10.50;99.90;;;;;;4977820;28;20187;-83
2021/09/07 04:20:22;;;;;;;15.20;9.40;;;10.50;99.90;;;;;;4979041;28;20248;-83
2021/09/07 04:22:48;;;;;;;13.87;9.90;;;10.50;99.90;;;;;;4978597;28;20184;-82
2021/09/07 04:25:14;;;;;;;17.07;10.17;;;10.60;99.90;;;;;;4979571;28;20188;-82
2021/09/07 04:27:40;;;;;;;12.17;8.83;;;10.50;99.90;;;;;;4978524;28;20191;-83
2021/09/07 04:30:08;;;;;;;14.03;9.17;;;10.40;99.90;;;;;;4979038;28;20208;-83
2021/09/07 04:32:34;;;;;;;11.73;9.57;;;10.50;99.90;;;;;;4982466;28;20263;-82
2021/09/07 04:35:00;;;;;;;13.87;9.13;;;10.50;99.90;;;;;;4981435;28;20196;-82
2021/09/07 04:37:26;;;;;;;12.63;9.20;;;;;;;;;;4981839;28;20187;-83
2021/09/07 04:39:51;;;;;;;13.50;8.90;;;10.40;99.90;;;;;;4983538;28;20204;-82
2021/09/07 04:42:18;;;;;;;13.50;9.03;;;10.40;99.90;;;;;;4985408;28;20184;-84
2021/09/07 04:44:44;;;;;;;13.83;9.13;;;10.40;99.90;;;;;;4982769;28;20180;-82
2021/09/07 04:47:10;;;;;;;13.17;9.17;;;10.40;99.90;;;;;;4982780;28;20187;-82
2021/09/07 04:49:36;;;;;;;12.27;9.50;;;;;;;;;;4980875;28;20215;-82
2021/09/07 04:52:03;;;;;;;15.63;9.27;;;10.30;99.90;;;;;;4982170;28;20180;-83
2021/09/07 04:54:28;;;;;;;16.47;9.67;;;10.30;99.90;;;;;;4981018;28;20176;-83
2021/09/07 04:56:54;;;;;;;12.93;8.70;;;;;;;;;;4982372;28;20177;-83
2021/09/07 04:59:22;;;;;;;13.03;8.60;;;10.30;99.90;;;;;;4981505;28;20204;-82
2021/09/07 05:01:48;;;;;;;14.03;9.57;;;10.30;99.90;;;;;;4981519;28;20202;-82
2021/09/07 05:04:14;;;;;;;13.80;9.50;;;;;;;;;;4981274;28;20639;-82
2021/09/07 05:06:39;;;;;;;12.47;9.53;;;10.20;99.90;;;;;;4981033;28;20523;-83
2021/09/07 05:09:05;;;;;;;14.67;9.30;;;10.20;99.90;;;;;;4982581;28;20267;-82
2021/09/07 05:11:31;;;;;;;12.83;9.13;;;10.20;99.90;;;;;;4983465;28;20247;-82
2021/09/07 05:13:57;;;;;;;14.90;9.83;;;10.20;99.90;;;;;;4982934;28;20191;-83
2021/09/07 05:16:22;;;;;;;12.27;8.97;;;10.20;99.90;;;;;;4981018;28;20188;-83
2021/09/07 05:18:48;;;;;;;11.67;8.47;;;10.20;99.90;;;;;;4981145;28;20187;-83
2021/09/07 05:21:14;;;;;;;14.13;9.23;;;10.20;99.90;;;;;;4981690;28;20200;-82
2021/09/07 05:23:40;;;;;;;15.97;9.37;;;10.30;99.90;;;;;;4981103;28;20244;-82
2021/09/07 05:26:06;;;;;;;14.90;9.40;;;10.30;99.90;;;;;;4982341;28;20184;-82
2021/09/07 05:28:32;;;;;;;15.33;8.80;;;10.30;99.90;;;;;;4984917;28;20555;-83
2021/09/07 05:30:58;;;;;;;12.10;8.10;;;10.30;99.90;;;;;;4987949;28;20208;-82
2021/09/07 05:33:25;;;;;;;11.70;8.50;;;;;;;;;;4987367;28;20275;-82
2021/09/07 05:35:51;;;;;;;10.47;7.67;;;10.40;99.90;;;;;;4987023;28;20202;-83
2021/09/07 05:38:17;;;;;;;14.80;8.20;;;10.40;99.90;;;;;;4982409;28;20207;-83
2021/09/07 05:40:43;;;;;;;10.67;7.90;;;10.40;99.90;;;;;;4981857;28;20205;-83
2021/09/07 05:43:08;;;;;;;10.93;8.00;;;10.40;99.90;;;;;;4982936;28;20180;-83
2021/09/07 05:45:34;;;;;;;10.63;7.80;;;10.40;99.90;;;;;;4982797;28;20195;-83
2021/09/07 05:48:00;;;;;;;10.57;7.17;;;10.40;99.90;;;;;;4983573;28;20654;-83
2021/09/07 05:50:26;;;;;;;11.73;8.00;;;10.50;99.90;;;;;;4983528;28;20210;-83
2021/09/07 05:52:52;;;;;;;11.40;7.20;;;;;;;;;;4981948;28;20183;-83
2021/09/07 05:55:17;;;;;;;12.37;6.87;;;10.60;99.90;;;;;;4983496;28;20263;-83
2021/09/07 05:57:44;;;;;;;7.63;6.13;;;;;;;;;;4984898;28;20656;-83
2021/09/07 06:00:11;;;;;;;9.47;7.37;;;10.80;99.90;;;;;;4984935;28;20271;-83
2021/09/07 06:02:37;;;;;;;9.07;7.37;;;10.80;99.90;;;;;;4984874;28;20195;-84
2021/09/07 06:05:04;;;;;;;9.93;6.77;;;11.00;99.90;;;;;;4981744;28;20183;-83
2021/09/07 06:07:30;;;;;;;11.73;7.07;;;11.10;99.90;;;;;;4982219;28;20191;-83
2021/09/07 06:09:58;;;;;;;9.77;7.00;;;11.30;99.90;;;;;;4982521;28;20204;-83
2021/09/07 06:12:24;;;;;;;9.77;7.00;;;11.30;99.90;;;;;;4982061;28;20168;-83
2021/09/07 06:14:50;;;;;;;11.93;7.23;;;11.50;99.90;;;;;;4988419;28;20172;-82
2021/09/07 06:17:16;;;;;;;11.43;6.80;;;11.60;99.90;;;;;;4992130;28;20184;-83
2021/09/07 06:19:42;;;;;;;12.57;7.80;;;11.80;99.90;;;;;;4988569;28;20203;-83
2021/09/07 06:22:07;;;;;;;11.80;6.60;;;11.80;99.90;;;;;;4984003;28;20321;-83
2021/09/07 06:24:33;;;;;;;8.03;6.37;;;;;;;;;;4984544;28;20267;-83
2021/09/07 06:26:59;;;;;;;13.93;5.87;;;12.00;99.90;;;;;;4983620;28;20717;-83
2021/09/07 06:29:25;;;;;;;10.03;7.07;;;12.30;99.90;;;;;;4983221;28;20258;-83
2021/09/07 06:31:51;;;;;;;15.03;6.80;;;;;;;;;;4982908;28;20177;-83
2021/09/07 06:34:17;;;;;;;9.47;6.27;;;12.40;99.90;;;;;;4981885;28;20196;-83
2021/09/07 06:36:43;;;;;;;8.80;5.87;;;;;;;;;;4982551;28;20160;-83
2021/09/07 06:39:09;;;;;;;8.93;6.07;;;12.80;99.90;;;;;;4981756;28;20172;-83
2021/09/07 06:41:35;;;;;;;8.97;5.70;;;12.80;99.90;;;;;;4980151;28;20188;-82
2021/09/07 06:44:00;;;;;;;7.43;5.37;;;12.90;99.90;;;;;;4981118;28;20190;-83
2021/09/07 06:46:26;;;;;;;7.97;5.93;;;13.10;99.90;;;;;;4979398;28;20203;-83
2021/09/07 06:48:52;;;;;;;8.47;5.77;;;;;;;;;;4979572;28;20184;-83
2021/09/07 06:51:18;;;;;;;7.73;5.40;;;13.40;99.90;;;;;;4979734;28;20208;-83
2021/09/07 06:53:43;;;;;;;7.40;5.20;;;13.40;99.90;;;;;;4979034;28;20223;-83
2021/09/07 06:56:09;;;;;;;6.23;5.13;;;13.50;99.90;;;;;;4982062;28;20196;-83
2021/09/07 06:58:35;;;;;;;7.93;5.63;;;13.50;99.90;;;;;;4980898;28;20235;-83
2021/09/07 07:01:00;;;;;;;9.30;5.13;;;13.70;99.90;;;;;;4979424;28;20203;-83
2021/09/07 07:03:26;;;;;;;9.77;5.73;;;13.80;99.90;;;;;;4980345;28;20176;-83
2021/09/07 07:05:53;;;;;;;8.17;5.67;;;13.90;99.90;;;;;;4979420;28;20181;-83
2021/09/07 07:08:19;;;;;;;7.97;5.37;;;14.10;99.90;;;;;;4980740;28;20646;-83
2021/09/07 07:10:44;;;;;;;6.40;5.20;;;14.20;99.90;;;;;;4980075;28;20212;-83
2021/09/07 07:13:10;;;;;;;7.03;5.07;;;14.40;99.90;;;;;;4980572;28;20173;-82
2021/09/07 07:15:35;;;;;;;6.53;5.00;;;14.50;99.90;;;;;;4980200;28;20180;-83
2021/09/07 07:18:01;;;;;;;6.77;5.23;;;14.70;99.90;;;;;;4979326;28;20177;-83
2021/09/07 07:20:27;;;;;;;6.93;5.70;;;14.80;99.90;;;;;;4979966;28;20208;-83
2021/09/07 07:22:53;;;;;;;10.00;5.03;;;14.90;99.90;;;;;;4980220;28;20200;-83
2021/09/07 07:25:18;;;;;;;7.80;5.00;;;14.90;99.90;;;;;;4979372;28;20184;-83
2021/09/07 07:27:45;;;;;;;8.37;5.13;;;14.90;99.90;;;;;;4979066;28;20573;-83
2021/09/07 07:30:11;;;;;;;10.00;4.90;;;15.00;99.90;;;;;;4979401;28;20207;-83
2021/09/07 07:32:37;;;;;;;6.60;4.73;;;15.20;99.90;;;;;;4980053;28;20275;-83
2021/09/07 07:35:04;;;;;;;9.00;5.50;;;15.40;99.90;;;;;;4980440;28;20275;-83
2021/09/07 07:37:30;;;;;;;7.00;5.47;;;15.60;99.90;;;;;;4979812;28;20200;-83
2021/09/07 07:39:55;;;;;;;7.87;5.10;;;15.80;99.90;;;;;;4980633;28;20215;-83
2021/09/07 07:42:21;;;;;;;6.70;5.03;;;16.00;99.90;;;;;;4980361;28;20200;-83
2021/09/07 07:44:48;;;;;;;8.20;4.90;;;16.00;99.90;;;;;;4981082;28;20698;-84
2021/09/07 07:47:14;;;;;;;5.80;4.87;;;16.10;99.90;;;;;;4980930;28;20180;-83
2021/09/07 07:49:39;;;;;;;9.33;5.23;;;16.00;99.90;;;;;;4979842;28;20212;-83
2021/09/07 07:52:05;;;;;;;5.80;4.77;;;15.90;99.90;;;;;;4981097;28;20642;-83
2021/09/07 07:54:31;;;;;;;7.37;5.23;;;15.90;99.90;;;;;;4982722;28;20187;-83
2021/09/07 07:56:57;;;;;;;6.50;4.77;;;15.90;99.90;;;;;;4989100;28;20203;-83
2021/09/07 07:59:23;;;;;;;9.53;5.50;;;16.00;99.90;;;;;;4991402;28;20193;-83
2021/09/07 08:01:48;;;;;;;6.90;4.50;;;16.10;99.90;;;;;;4992350;28;20189;-83
2021/09/07 08:04:15;;;;;;;6.63;5.10;;;16.10;99.90;;;;;;4982623;28;20258;-83
2021/09/07 08:06:40;;;;;;;7.13;4.93;;;16.30;99.90;;;;;;4987464;28;20213;-83
2021/09/07 08:09:09;;;;;;;9.00;5.23;;;17.50;99.90;;;;;;4981476;28;20568;-82
2021/09/07 08:11:35;;;;;;;8.47;4.40;;;17.60;99.90;;;;;;4984977;28;20221;-83
2021/09/07 08:14:01;;;;;;;8.73;5.00;;;18.70;99.90;;;;;;4983244;28;20177;-83
2021/09/07 08:16:26;;;;;;;7.27;5.03;;;19.70;99.90;;;;;;4983825;28;20185;-83
2021/09/07 08:18:52;;;;;;;11.73;7.83;;;20.80;99.90;;;;;;4984550;28;20178;-83
2021/09/07 08:21:18;;;;;;;12.10;6.80;;;21.30;99.90;;;;;;4983784;28;20252;-81
2021/09/07 08:23:43;;;;;;;15.13;6.87;;;21.90;99.90;;;;;;4983235;28;20180;-81
2021/09/07 08:26:09;;;;;;;17.03;7.53;;;22.60;99.90;;;;;;4982566;28;20634;-81
2021/09/07 08:28:35;;;;;;;9.23;5.90;;;23.30;99.90;;;;;;4979607;28;20194;-81
2021/09/07 08:31:01;;;;;;;9.80;5.10;;;24.00;99.90;;;;;;4980131;28;20219;-81
2021/09/07 08:33:26;;;;;;;8.77;5.37;;;24.30;99.90;;;;;;4983688;28;20180;-82
2021/09/07 08:35:52;;;;;;;10.00;5.87;;;24.50;99.90;;;;;;4984641;28;20198;-82
2021/09/07 08:38:17;;;;;;;8.17;5.70;;;24.70;99.90;;;;;;4985253;28;20187;-82
2021/09/07 08:40:45;;;;;;;6.37;5.47;;;24.70;99.90;;;;;;4985252;28;20204;-83
2021/09/07 08:43:10;;;;;;;8.17;5.23;;;24.90;99.90;;;;;;4987379;28;20181;-82
2021/09/07 08:45:39;;;;;;;11.80;5.17;;;25.10;99.90;;;;;;4988838;28;20182;-82
2021/09/07 08:48:05;;;;;;;7.47;5.37;;;25.30;99.90;;;;;;4987276;28;20689;-82
2021/09/07 08:50:31;;;;;;;8.23;5.37;;;25.40;99.90;;;;;;4994079;28;20714;-81
2021/09/07 08:52:58;;;;;;;12.23;5.13;;;25.40;99.90;;;;;;4993887;28;20186;-81
2021/09/07 08:55:25;;;;;;;6.60;5.63;;;25.50;99.90;;;;;;4992822;28;20180;-82
2021/09/07 08:57:51;;;;;;;8.43;5.50;;;25.50;99.90;;;;;;4987999;28;20182;-82
2021/09/07 09:00:25;;;;;;;10.30;6.30;;;25.50;99.90;;;;;;4985076;28;20341;-82
2021/09/07 09:02:50;;;;;;;9.80;6.37;;;25.50;99.90;;;;;;4983447;28;20557;-82
2021/09/07 09:05:27;;;;;;;8.03;5.90;;;25.30;99.90;;;;;;4985017;28;20308;-82
2021/09/07 09:07:54;;;;;;;7.60;5.30;;;25.40;99.90;;;;;;4984819;28;20177;-82
2021/09/07 09:10:24;;;;;;;8.43;6.27;;;25.60;99.90;;;;;;4984300;28;20208;-82
2021/09/07 09:13:13;;;;;;;6.00;5.23;;;25.80;99.90;;;;;;4985506;28;20169;-82
2021/09/07 09:15:40;;;;;;;6.90;5.60;;;25.90;99.90;;;;;;4984183;28;20172;-81
2021/09/07 09:18:12;;;;;;;8.00;5.97;;;26.00;99.90;;;;;;4986623;28;20199;-82
2021/09/07 09:20:39;;;;;;;10.10;5.60;;;25.90;99.90;;;;;;4986035;28;20225;-81
2021/09/07 09:23:08;;;;;;;8.73;5.43;;;25.80;99.90;;;;;;4986989;28;20639;-82
2021/09/07 09:25:36;;;;;;;4.83;4.33;;;25.80;99.90;;;;;;4986490;28;20682;-82
2021/09/07 09:28:01;;;;;;;7.30;4.37;;;25.70;99.90;;;;;;4985380;28;20197;-82
2021/09/07 09:30:32;;;;;;;6.10;3.97;;;25.80;99.90;;;;;;4985153;28;20215;-82
2021/09/07 09:32:58;;;;;;;7.70;4.07;;;25.90;99.90;;;;;;4986094;28;20254;-82
2021/09/07 09:35:24;;;;;;;6.73;4.63;;;26.00;98.30;;;;;;4989439;28;20217;-80
2021/09/07 09:37:54;;;;;;;5.20;3.90;;;26.00;99.90;;;;;;4995234;28;20183;-81
2021/09/07 09:40:20;;;;;;;8.07;4.67;;;26.00;99.20;;;;;;4991021;28;20202;-82
2021/09/07 09:42:48;;;;;;;4.10;3.63;;;26.40;99.90;;;;;;4985407;28;20587;-82
2021/09/07 09:45:15;;;;;;;4.20;3.80;;;26.50;96.40;;;;;;4985509;28;20221;-82
2021/09/07 09:47:43;;;;;;;6.13;4.30;;;26.60;99.40;;;;;;4984054;28;20213;-82
2021/09/07 09:50:11;;;;;;;5.20;4.37;;;26.60;96.00;;;;;;4985409;28;20206;-82
2021/09/07 09:52:39;;;;;;;4.83;4.30;;;26.50;99.90;;;;;;4984281;28;20240;-82
2021/09/07 09:55:06;;;;;;;10.60;4.33;;;26.70;97.70;;;;;;4984012;28;20190;-82
2021/09/07 09:57:34;;;;;;;5.37;4.00;;;26.90;99.90;;;;;;4983864;28;20185;-82
2021/09/07 10:00:02;;;;;;;4.87;4.23;;;27.10;99.40;;;;;;4985509;28;20746;-81
2021/09/07 10:02:29;;;;;;;5.17;4.67;;;27.10;98.00;;;;;;4985036;28;20221;-82
2021/09/07 10:04:55;;;;;;;6.23;3.90;;;27.20;96.20;;;;;;4985604;28;20226;-82
2021/09/07 10:07:22;;;;;;;7.63;4.10;;;27.30;92.50;;;;;;4989086;28;20196;-81
2021/09/07 10:09:48;;;;;;;4.77;4.20;;;27.20;93.00;;;;;;4982557;28;20215;-82
2021/09/07 10:12:19;;;;;;;4.83;4.33;;;27.20;91.60;;;;;;4982901;28;20184;-82
2021/09/07 10:15:11;;;;;;;4.90;4.33;;;27.30;96.80;;;;;;4982987;28;20651;-82
2021/09/07 10:23:12;;;;;;;8.40;4.53;;;27.50;95.80;;;;;;4982594;28;20205;-82
2021/09/07 10:25:59;;;;;;;5.10;4.60;;;27.60;94.50;;;;;;4983976;28;20187;-81
2021/09/07 10:28:42;;;;;;;6.97;5.03;;;27.80;94.00;;;;;;4983331;28;20169;-81
2021/09/07 10:31:10;;;;;;;6.37;4.40;;;27.50;90.80;;;;;;4983866;28;20215;-81
2021/09/07 10:33:44;;;;;;;5.47;4.90;;;27.70;93.20;;;;;;4982808;28;20191;-81
2021/09/07 10:36:11;;;;;;;4.83;4.20;;;27.80;91.50;;;;;;4982696;28;20609;-80
2021/09/07 10:38:40;;;;;;;5.17;4.77;;;27.70;91.80;;;;;;4982868;28;20184;-82
2021/09/07 10:41:07;;;;;;;5.00;4.50;;;27.90;92.30;;;;;;4967752;28;20309;-82
2021/09/07 10:43:56;;;;;;;4.67;4.07;;;28.20;91.20;;;;;;4985600;28;20234;-82
2021/09/07 10:46:48;;;;;;;4.83;4.33;;;28.50;91.10;;;;;;4983523;28;20185;-82
2021/09/07 10:49:44;;;;;;;5.53;4.27;;;28.50;92.40;;;;;;4983197;28;20208;-82
2021/09/07 10:52:17;;;;;;;7.60;4.40;;;28.60;91.30;;;;;;4984252;28;20313;-82
2021/09/07 10:54:53;;;;;;;5.17;4.67;;;28.60;82.50;;;;;;4991995;28;20236;-82
2021/09/07 10:57:34;;;;;;;5.70;4.00;;;28.50;89.30;;;;;;4991850;28;20274;-81
2021/09/07 11:00:03;;;;;;;5.10;4.60;;;28.80;86.30;;;;;;4987112;28;20205;-83
2021/09/07 11:02:55;;;;;;;4.83;4.43;;;28.60;90.50;;;;;;4985483;28;20186;-82
2021/09/07 11:05:24;;;;;;;5.07;4.57;;;28.70;90.50;;;;;;4993072;28;20207;-81
2021/09/07 11:08:06;;;;;;;4.40;4.00;;;28.60;85.20;;;;;;4987941;28;20249;-82
2021/09/07 11:10:37;;;;;;;4.27;3.87;;;28.60;78.50;;;;;;4982897;28;20217;-82
2021/09/07 11:13:30;;;;;;;4.73;4.20;;;28.70;85.40;;;;;;4983268;28;20175;-82
2021/09/07 11:16:01;;;;;;;4.30;3.90;;;28.80;82.20;;;;;;4982905;28;20190;-82
2021/09/07 11:18:34;;;;;;;5.03;3.80;;;29.20;80.00;;;;;;4984747;28;20640;-83
2021/09/07 11:21:03;;;;;;;4.10;3.70;;;29.60;80.20;;;;;;4982771;28;20202;-82
2021/09/07 11:23:31;;;;;;;3.73;3.40;;;29.70;78.70;;;;;;4984304;28;20182;-82
2021/09/07 11:26:03;;;;;;;4.20;3.37;;;29.80;76.40;;;;;;4985137;28;20647;-81
2021/09/07 11:28:30;;;;;;;4.33;3.80;;;29.80;72.20;;;;;;4984649;28;20194;-82
2021/09/07 11:30:57;;;;;;;4.57;4.00;;;29.80;74.50;;;;;;4983882;28;20213;-82
2021/09/07 11:33:34;;;;;;;4.20;3.90;;;29.70;77.10;;;;;;4985143;28;20181;-81
2021/09/07 11:36:08;;;;;;;4.73;4.23;;;30.00;75.40;;;;;;4984565;28;20313;-82
2021/09/07 11:38:42;;;;;;;5.03;4.10;;;30.30;74.30;;;;;;4984062;28;20175;-82
2021/09/07 11:41:20;;;;;;;6.70;4.30;;;30.40;72.40;;;;;;4987536;28;20203;-82
2021/09/07 11:43:56;;;;;;;4.53;4.03;;;30.20;66.90;;;;;;4987224;28;20263;-81
2021/09/07 11:46:32;;;;;;;4.37;3.97;;;30.80;72.60;;;;;;4987363;28;20622;-82
2021/09/07 11:49:12;;;;;;;6.50;4.37;;;30.90;69.00;;;;;;4986893;28;20177;-82
2021/09/07 11:51:41;;;;;;;4.67;4.27;;;30.70;72.70;;;;;;4985214;28;20204;-83
2021/09/07 11:54:08;;;;;;;4.40;4.00;;;30.90;68.40;;;;;;4987018;28;20211;-83
2021/09/07 11:56:36;;;;;;;4.43;4.03;;;31.20;73.70;;;;;;4987612;28;20170;-84
2021/09/07 11:59:18;;;;;;;4.03;3.70;;;31.40;66.90;;;;;;4988267;28;20179;-82
2021/09/07 12:01:49;;;;;;;4.40;4.00;;;31.20;68.70;;;;;;4986407;28;20193;-82
2021/09/07 12:04:17;;;;;;;5.23;4.10;;;31.10;65.50;;;;;;4987845;28;20174;-82
2021/09/07 12:06:51;;;;;;;5.77;4.43;;;31.50;68.90;;;;;;4985455;28;20205;-81
2021/09/07 12:09:34;;;;;;;6.10;4.03;;;31.50;67.10;;;;;;4985365;28;20200;-82
2021/09/07 12:12:00;;;;;;;6.53;4.03;;;31.30;63.30;;;;;;4984979;28;20176;-82
2021/09/07 12:14:26;;;;;;;5.10;3.50;;;31.30;61.60;;;;;;4985028;28;20177;-82
2021/09/07 12:16:57;;;;;;;5.33;3.93;;;31.20;65.30;;;;;;4987955;28;20179;-82
2021/09/07 12:19:29;;;;;;;7.57;3.70;;;31.50;57.80;;;;;;4985619;28;20287;-82
2021/09/07 12:22:10;;;;;;;4.37;3.60;;;31.50;56.00;;;;;;4985275;28;20166;-82
2021/09/07 12:24:37;;;;;;;3.73;3.43;;;31.30;57.20;;;;;;4984913;28;20180;-81
2021/09/07 12:27:24;;;;;;;27.27;5.07;;;30.90;59.70;;;;;;4983881;28;20178;-82
2021/09/07 12:30:10;;;;;;;4.20;3.80;;;30.30;60.40;;;;;;4986164;28;20212;-82
2021/09/07 12:33:08;;;;;;;4.20;3.70;;;29.90;66.00;;;;;;4989971;28;20181;-82
2021/09/07 12:35:54;;;;;;;4.87;4.00;;;29.40;63.90;;;;;;4994800;28;20216;-82
2021/09/07 12:38:22;;;;;;;4.33;3.93;;;28.90;66.70;;;;;;4987035;28;20183;-82
2021/09/07 12:40:59;;;;;;;5.00;4.40;;;28.60;72.00;;;;;;4988929;28;20283;-83
2021/09/07 12:43:30;;;;;;;9.47;5.60;;;28.20;68.80;;;;;;4993811;28;20181;-82
2021/09/07 12:45:59;;;;;;;7.17;4.97;;;28.10;69.40;;;;;;4985013;28;20179;-82
2021/09/07 12:48:25;;;;;;;5.30;4.23;;;27.90;71.60;;;;;;4994009;28;20186;-81
2021/09/07 12:50:51;;;;;;;4.80;4.30;;;27.90;70.90;;;;;;4993037;28;20202;-82
2021/09/07 12:53:21;;;;;;;4.23;3.83;;;28.00;71.70;;;;;;4994953;28;20237;-82